sensor_id;sensor_type;location;lat;lon;timestamp;P1;durP1;ratioP1;P2;durP2;ratioP2
78416;SDS011;67715;46.170;6.140;2023-07-22T00:02:18;3.37;;;2.07;;
78416;SDS011;67715;46.170;6.140;2023-07-22T00:04:44;3.63;;;2.25;;
78416;SDS011;67715;46.170;6.140;2023-07-22T00:07:09;3.78;;;1.90;;
78416;SDS011;67715;46.170;6.140;2023-07-22T00:09:36;3.22;;;1.88;;
78416;SDS011;67715;46.170;6.140;2023-07-22T00:12:02;5.53;;;2.20;;
78416;SDS011;67715;46.170;6.140;2023-07-22T00:14:28;5.40;;;2.30;;
78416;SDS011;67715;46.170;6.140;2023-07-22T00:16:53;4.30;;;1.83;;
78416;SDS011;67715;46.170;6.140;2023-07-22T00:19:18;4.37;;;2.07;;
78416;SDS011;67715;46.170;6.140;2023-07-22T00:21:44;2.73;;;1.80;;
78416;SDS011;67715;46.170;6.140;2023-07-22T00:24:09;3.03;;;1.83;;
78416;SDS011;67715;46.170;6.140;2023-07-22T00:26:35;3.30;;;2.05;;
78416;SDS011;67715;46.170;6.140;2023-07-22T00:29:01;3.05;;;2.08;;
78416;SDS011;67715;46.170;6.140;2023-07-22T00:31:27;4.13;;;2.03;;
78416;SDS011;67715;46.170;6.140;2023-07-22T00:33:52;4.03;;;1.95;;
78416;SDS011;67715;46.170;6.140;2023-07-22T00:36:18;3.23;;;2.07;;
78416;SDS011;67715;46.170;6.140;2023-07-22T00:38:43;3.83;;;2.30;;
78416;SDS011;67715;46.170;6.140;2023-07-22T00:41:08;5.17;;;2.13;;
78416;SDS011;67715;46.170;6.140;2023-07-22T00:43:34;3.27;;;1.90;;
78416;SDS011;67715;46.170;6.140;2023-07-22T00:45:59;3.53;;;2.33;;
78416;SDS011;67715;46.170;6.140;2023-07-22T00:48:24;4.13;;;2.10;;
78416;SDS011;67715;46.170;6.140;2023-07-22T00:50:50;3.47;;;2.10;;
78416;SDS011;67715;46.170;6.140;2023-07-22T00:53:15;4.73;;;2.40;;
78416;SDS011;67715;46.170;6.140;2023-07-22T00:55:41;3.10;;;1.77;;
78416;SDS011;67715;46.170;6.140;2023-07-22T00:58:06;5.90;;;1.77;;
78416;SDS011;67715;46.170;6.140;2023-07-22T01:00:31;3.27;;;2.20;;
78416;SDS011;67715;46.170;6.140;2023-07-22T01:02:57;4.43;;;2.20;;
78416;SDS011;67715;46.170;6.140;2023-07-22T01:05:23;3.38;;;2.13;;
78416;SDS011;67715;46.170;6.140;2023-07-22T01:07:50;6.65;;;2.42;;
78416;SDS011;67715;46.170;6.140;2023-07-22T01:10:16;4.97;;;2.20;;
78416;SDS011;67715;46.170;6.140;2023-07-22T01:12:41;4.28;;;2.50;;
78416;SDS011;67715;46.170;6.140;2023-07-22T01:15:06;4.77;;;2.30;;
78416;SDS011;67715;46.170;6.140;2023-07-22T01:17:32;2.92;;;1.92;;
78416;SDS011;67715;46.170;6.140;2023-07-22T01:19:59;4.63;;;2.20;;
78416;SDS011;67715;46.170;6.140;2023-07-22T01:22:25;4.85;;;2.58;;
78416;SDS011;67715;46.170;6.140;2023-07-22T01:24:51;4.65;;;2.20;;
78416;SDS011;67715;46.170;6.140;2023-07-22T01:27:16;4.05;;;2.13;;
78416;SDS011;67715;46.170;6.140;2023-07-22T01:29:41;4.93;;;2.10;;
78416;SDS011;67715;46.170;6.140;2023-07-22T01:32:07;3.75;;;2.38;;
78416;SDS011;67715;46.170;6.140;2023-07-22T01:34:32;3.70;;;2.28;;
78416;SDS011;67715;46.170;6.140;2023-07-22T01:36:57;3.33;;;2.00;;
78416;SDS011;67715;46.170;6.140;2023-07-22T01:39:23;4.80;;;2.40;;
78416;SDS011;67715;46.170;6.140;2023-07-22T01:41:48;2.83;;;1.80;;
78416;SDS011;67715;46.170;6.140;2023-07-22T01:44:14;3.87;;;2.17;;
78416;SDS011;67715;46.170;6.140;2023-07-22T01:46:39;4.90;;;2.22;;
78416;SDS011;67715;46.170;6.140;2023-07-22T01:49:05;4.18;;;2.00;;
78416;SDS011;67715;46.170;6.140;2023-07-22T01:51:33;4.88;;;2.40;;
78416;SDS011;67715;46.170;6.140;2023-07-22T01:53:58;4.22;;;2.70;;
78416;SDS011;67715;46.170;6.140;2023-07-22T01:56:24;4.07;;;2.45;;
78416;SDS011;67715;46.170;6.140;2023-07-22T01:58:50;4.05;;;2.33;;
78416;SDS011;67715;46.170;6.140;2023-07-22T02:01:15;4.30;;;2.30;;
78416;SDS011;67715;46.170;6.140;2023-07-22T02:03:41;4.38;;;2.40;;
78416;SDS011;67715;46.170;6.140;2023-07-22T02:06:07;3.40;;;2.30;;
78416;SDS011;67715;46.170;6.140;2023-07-22T02:08:32;3.90;;;2.10;;
78416;SDS011;67715;46.170;6.140;2023-07-22T02:11:04;7.55;;;2.05;;
78416;SDS011;67715;46.170;6.140;2023-07-22T02:13:31;4.53;;;2.65;;
78416;SDS011;67715;46.170;6.140;2023-07-22T02:15:57;5.20;;;2.20;;
78416;SDS011;67715;46.170;6.140;2023-07-22T02:18:22;4.13;;;2.20;;
78416;SDS011;67715;46.170;6.140;2023-07-22T02:20:48;4.90;;;2.20;;
78416;SDS011;67715;46.170;6.140;2023-07-22T02:23:13;3.10;;;2.27;;
78416;SDS011;67715;46.170;6.140;2023-07-22T02:25:39;6.50;;;2.35;;
78416;SDS011;67715;46.170;6.140;2023-07-22T02:28:04;4.13;;;2.20;;
78416;SDS011;67715;46.170;6.140;2023-07-22T02:30:29;3.37;;;1.97;;
78416;SDS011;67715;46.170;6.140;2023-07-22T02:32:55;3.97;;;1.87;;
78416;SDS011;67715;46.170;6.140;2023-07-22T02:35:21;3.42;;;2.10;;
78416;SDS011;67715;46.170;6.140;2023-07-22T02:37:46;4.57;;;2.00;;
78416;SDS011;67715;46.170;6.140;2023-07-22T02:40:11;3.70;;;2.03;;
78416;SDS011;67715;46.170;6.140;2023-07-22T02:42:37;3.00;;;2.15;;
78416;SDS011;67715;46.170;6.140;2023-07-22T02:45:02;2.92;;;2.10;;
78416;SDS011;67715;46.170;6.140;2023-07-22T02:47:29;3.70;;;2.42;;
78416;SDS011;67715;46.170;6.140;2023-07-22T02:49:54;4.30;;;2.05;;
78416;SDS011;67715;46.170;6.140;2023-07-22T02:52:20;5.13;;;2.00;;
78416;SDS011;67715;46.170;6.140;2023-07-22T02:55:03;4.57;;;2.50;;
78416;SDS011;67715;46.170;6.140;2023-07-22T02:57:39;4.28;;;2.05;;
78416;SDS011;67715;46.170;6.140;2023-07-22T03:00:05;5.32;;;2.22;;
78416;SDS011;67715;46.170;6.140;2023-07-22T03:02:38;5.72;;;2.45;;
78416;SDS011;67715;46.170;6.140;2023-07-22T03:05:04;4.93;;;3.08;;
78416;SDS011;67715;46.170;6.140;2023-07-22T03:07:36;3.55;;;2.38;;
78416;SDS011;67715;46.170;6.140;2023-07-22T03:10:02;4.32;;;2.80;;
78416;SDS011;67715;46.170;6.140;2023-07-22T03:12:28;5.10;;;2.65;;
78416;SDS011;67715;46.170;6.140;2023-07-22T03:14:53;4.37;;;2.67;;
78416;SDS011;67715;46.170;6.140;2023-07-22T03:17:19;3.77;;;2.20;;
78416;SDS011;67715;46.170;6.140;2023-07-22T03:19:44;4.82;;;2.42;;
78416;SDS011;67715;46.170;6.140;2023-07-22T03:22:10;4.10;;;2.22;;
78416;SDS011;67715;46.170;6.140;2023-07-22T03:24:38;3.83;;;2.17;;
78416;SDS011;67715;46.170;6.140;2023-07-22T03:27:03;4.10;;;2.30;;
78416;SDS011;67715;46.170;6.140;2023-07-22T03:29:29;4.32;;;2.30;;
78416;SDS011;67715;46.170;6.140;2023-07-22T03:31:54;3.27;;;2.03;;
78416;SDS011;67715;46.170;6.140;2023-07-22T03:34:22;4.80;;;2.22;;
78416;SDS011;67715;46.170;6.140;2023-07-22T03:36:47;4.22;;;2.28;;
78416;SDS011;67715;46.170;6.140;2023-07-22T03:39:13;4.50;;;2.15;;
78416;SDS011;67715;46.170;6.140;2023-07-22T03:41:39;4.87;;;2.37;;
78416;SDS011;67715;46.170;6.140;2023-07-22T03:44:04;3.73;;;2.20;;
78416;SDS011;67715;46.170;6.140;2023-07-22T03:46:29;3.53;;;2.20;;
78416;SDS011;67715;46.170;6.140;2023-07-22T03:48:55;3.57;;;2.20;;
78416;SDS011;67715;46.170;6.140;2023-07-22T03:51:20;4.17;;;2.20;;
78416;SDS011;67715;46.170;6.140;2023-07-22T03:53:45;3.60;;;2.30;;
78416;SDS011;67715;46.170;6.140;2023-07-22T03:56:11;4.63;;;1.80;;
78416;SDS011;67715;46.170;6.140;2023-07-22T03:58:36;3.37;;;2.07;;
78416;SDS011;67715;46.170;6.140;2023-07-22T04:01:01;5.17;;;2.40;;
78416;SDS011;67715;46.170;6.140;2023-07-22T04:03:26;4.23;;;2.30;;
78416;SDS011;67715;46.170;6.140;2023-07-22T04:05:55;4.73;;;2.20;;
78416;SDS011;67715;46.170;6.140;2023-07-22T04:08:21;5.10;;;2.63;;
78416;SDS011;67715;46.170;6.140;2023-07-22T04:10:53;6.38;;;2.78;;
78416;SDS011;67715;46.170;6.140;2023-07-22T04:13:22;4.43;;;2.40;;
78416;SDS011;67715;46.170;6.140;2023-07-22T04:15:48;3.60;;;2.20;;
78416;SDS011;67715;46.170;6.140;2023-07-22T04:18:17;3.22;;;2.30;;
78416;SDS011;67715;46.170;6.140;2023-07-22T04:20:44;3.42;;;2.25;;
78416;SDS011;67715;46.170;6.140;2023-07-22T04:23:10;4.57;;;2.25;;
78416;SDS011;67715;46.170;6.140;2023-07-22T04:25:53;7.68;;;2.83;;
78416;SDS011;67715;46.170;6.140;2023-07-22T04:28:18;3.20;;;2.30;;
78416;SDS011;67715;46.170;6.140;2023-07-22T04:30:53;5.22;;;2.33;;
78416;SDS011;67715;46.170;6.140;2023-07-22T04:33:20;4.85;;;2.25;;
78416;SDS011;67715;46.170;6.140;2023-07-22T04:35:45;5.10;;;2.30;;
78416;SDS011;67715;46.170;6.140;2023-07-22T04:38:10;6.05;;;2.20;;
78416;SDS011;67715;46.170;6.140;2023-07-22T04:40:36;4.28;;;2.17;;
78416;SDS011;67715;46.170;6.140;2023-07-22T04:43:01;4.90;;;2.43;;
78416;SDS011;67715;46.170;6.140;2023-07-22T04:45:28;3.25;;;2.00;;
78416;SDS011;67715;46.170;6.140;2023-07-22T04:47:53;4.23;;;2.40;;
78416;SDS011;67715;46.170;6.140;2023-07-22T04:50:18;4.00;;;2.20;;
78416;SDS011;67715;46.170;6.140;2023-07-22T04:52:47;4.13;;;2.17;;
78416;SDS011;67715;46.170;6.140;2023-07-22T04:55:13;4.55;;;2.30;;
78416;SDS011;67715;46.170;6.140;2023-07-22T04:57:38;3.30;;;2.30;;
78416;SDS011;67715;46.170;6.140;2023-07-22T05:00:06;4.18;;;2.63;;
78416;SDS011;67715;46.170;6.140;2023-07-22T05:02:34;4.40;;;2.47;;
78416;SDS011;67715;46.170;6.140;2023-07-22T05:04:59;6.17;;;2.93;;
78416;SDS011;67715;46.170;6.140;2023-07-22T05:07:24;5.90;;;2.50;;
78416;SDS011;67715;46.170;6.140;2023-07-22T05:09:50;5.83;;;2.53;;
78416;SDS011;67715;46.170;6.140;2023-07-22T05:12:16;3.65;;;2.50;;
78416;SDS011;67715;46.170;6.140;2023-07-22T05:14:42;6.68;;;2.35;;
78416;SDS011;67715;46.170;6.140;2023-07-22T05:17:07;5.07;;;2.60;;
78416;SDS011;67715;46.170;6.140;2023-07-22T05:19:32;3.40;;;2.23;;
78416;SDS011;67715;46.170;6.140;2023-07-22T05:21:58;5.80;;;2.47;;
78416;SDS011;67715;46.170;6.140;2023-07-22T05:24:23;4.07;;;2.43;;
78416;SDS011;67715;46.170;6.140;2023-07-22T05:26:48;7.00;;;2.80;;
78416;SDS011;67715;46.170;6.140;2023-07-22T05:29:14;5.33;;;2.57;;
78416;SDS011;67715;46.170;6.140;2023-07-22T05:31:39;4.50;;;1.92;;
78416;SDS011;67715;46.170;6.140;2023-07-22T05:34:05;7.22;;;2.70;;
78416;SDS011;67715;46.170;6.140;2023-07-22T05:36:30;5.23;;;2.67;;
78416;SDS011;67715;46.170;6.140;2023-07-22T05:38:56;4.07;;;2.23;;
78416;SDS011;67715;46.170;6.140;2023-07-22T05:41:22;4.78;;;2.33;;
78416;SDS011;67715;46.170;6.140;2023-07-22T05:43:47;4.47;;;2.50;;
78416;SDS011;67715;46.170;6.140;2023-07-22T05:46:13;4.80;;;2.50;;
78416;SDS011;67715;46.170;6.140;2023-07-22T05:48:38;6.07;;;2.60;;
78416;SDS011;67715;46.170;6.140;2023-07-22T05:51:04;3.15;;;1.98;;
78416;SDS011;67715;46.170;6.140;2023-07-22T05:53:29;3.92;;;2.42;;
78416;SDS011;67715;46.170;6.140;2023-07-22T05:55:55;4.70;;;2.20;;
78416;SDS011;67715;46.170;6.140;2023-07-22T05:58:20;3.28;;;1.98;;
78416;SDS011;67715;46.170;6.140;2023-07-22T06:00:45;3.13;;;2.33;;
78416;SDS011;67715;46.170;6.140;2023-07-22T06:03:14;4.35;;;2.70;;
78416;SDS011;67715;46.170;6.140;2023-07-22T06:05:39;5.05;;;2.75;;
78416;SDS011;67715;46.170;6.140;2023-07-22T06:08:04;6.70;;;2.30;;
78416;SDS011;67715;46.170;6.140;2023-07-22T06:10:30;4.88;;;2.28;;
78416;SDS011;67715;46.170;6.140;2023-07-22T06:12:56;4.35;;;2.30;;
78416;SDS011;67715;46.170;6.140;2023-07-22T06:15:22;6.37;;;3.13;;
78416;SDS011;67715;46.170;6.140;2023-07-22T06:17:47;4.77;;;2.13;;
78416;SDS011;67715;46.170;6.140;2023-07-22T06:20:12;5.03;;;2.87;;
78416;SDS011;67715;46.170;6.140;2023-07-22T06:22:38;3.97;;;2.40;;
78416;SDS011;67715;46.170;6.140;2023-07-22T06:25:03;6.97;;;2.50;;
78416;SDS011;67715;46.170;6.140;2023-07-22T06:27:29;6.10;;;2.42;;
78416;SDS011;67715;46.170;6.140;2023-07-22T06:29:55;5.93;;;2.65;;
78416;SDS011;67715;46.170;6.140;2023-07-22T06:32:21;5.60;;;2.67;;
78416;SDS011;67715;46.170;6.140;2023-07-22T06:34:47;5.18;;;2.30;;
78416;SDS011;67715;46.170;6.140;2023-07-22T06:37:12;4.72;;;2.47;;
78416;SDS011;67715;46.170;6.140;2023-07-22T06:39:37;6.47;;;2.33;;
78416;SDS011;67715;46.170;6.140;2023-07-22T06:42:03;4.75;;;2.35;;
78416;SDS011;67715;46.170;6.140;2023-07-22T06:44:29;4.75;;;2.50;;
78416;SDS011;67715;46.170;6.140;2023-07-22T06:46:54;4.97;;;2.47;;
78416;SDS011;67715;46.170;6.140;2023-07-22T06:49:20;4.40;;;2.10;;
78416;SDS011;67715;46.170;6.140;2023-07-22T06:51:45;5.35;;;2.70;;
78416;SDS011;67715;46.170;6.140;2023-07-22T06:54:10;4.70;;;2.20;;
78416;SDS011;67715;46.170;6.140;2023-07-22T06:56:36;4.73;;;2.00;;
78416;SDS011;67715;46.170;6.140;2023-07-22T06:59:01;5.10;;;2.23;;
78416;SDS011;67715;46.170;6.140;2023-07-22T07:01:26;3.93;;;2.37;;
78416;SDS011;67715;46.170;6.140;2023-07-22T07:03:52;6.13;;;2.70;;
78416;SDS011;67715;46.170;6.140;2023-07-22T07:06:17;3.77;;;2.00;;
78416;SDS011;67715;46.170;6.140;2023-07-22T07:08:42;4.43;;;2.83;;
78416;SDS011;67715;46.170;6.140;2023-07-22T07:11:07;3.83;;;2.30;;
78416;SDS011;67715;46.170;6.140;2023-07-22T07:13:33;3.80;;;2.20;;
78416;SDS011;67715;46.170;6.140;2023-07-22T07:16:09;4.47;;;2.70;;
78416;SDS011;67715;46.170;6.140;2023-07-22T07:18:51;4.15;;;2.47;;
78416;SDS011;67715;46.170;6.140;2023-07-22T07:21:16;3.80;;;2.50;;
78416;SDS011;67715;46.170;6.140;2023-07-22T07:23:42;6.00;;;2.45;;
78416;SDS011;67715;46.170;6.140;2023-07-22T07:26:08;4.53;;;2.72;;
78416;SDS011;67715;46.170;6.140;2023-07-22T07:28:33;3.97;;;2.47;;
78416;SDS011;67715;46.170;6.140;2023-07-22T07:30:58;4.47;;;2.45;;
78416;SDS011;67715;46.170;6.140;2023-07-22T07:33:24;4.53;;;2.80;;
78416;SDS011;67715;46.170;6.140;2023-07-22T07:35:49;3.00;;;1.80;;
78416;SDS011;67715;46.170;6.140;2023-07-22T07:38:14;4.83;;;2.47;;
78416;SDS011;67715;46.170;6.140;2023-07-22T07:40:40;3.40;;;2.37;;
78416;SDS011;67715;46.170;6.140;2023-07-22T07:43:05;5.47;;;2.50;;
78416;SDS011;67715;46.170;6.140;2023-07-22T07:45:30;4.20;;;2.57;;
78416;SDS011;67715;46.170;6.140;2023-07-22T07:47:56;4.05;;;2.13;;
78416;SDS011;67715;46.170;6.140;2023-07-22T07:50:21;4.27;;;2.70;;
78416;SDS011;67715;46.170;6.140;2023-07-22T07:52:46;3.43;;;1.97;;
78416;SDS011;67715;46.170;6.140;2023-07-22T07:55:12;4.57;;;2.70;;
78416;SDS011;67715;46.170;6.140;2023-07-22T07:57:37;3.80;;;2.00;;
78416;SDS011;67715;46.170;6.140;2023-07-22T08:00:03;5.32;;;2.55;;
78416;SDS011;67715;46.170;6.140;2023-07-22T08:02:28;3.85;;;2.30;;
78416;SDS011;67715;46.170;6.140;2023-07-22T08:04:54;4.27;;;1.80;;
78416;SDS011;67715;46.170;6.140;2023-07-22T08:07:19;5.25;;;2.30;;
78416;SDS011;67715;46.170;6.140;2023-07-22T08:09:46;3.80;;;2.17;;
78416;SDS011;67715;46.170;6.140;2023-07-22T08:12:14;5.05;;;2.25;;
78416;SDS011;67715;46.170;6.140;2023-07-22T08:14:39;3.33;;;2.10;;
78416;SDS011;67715;46.170;6.140;2023-07-22T08:17:05;3.92;;;1.98;;
78416;SDS011;67715;46.170;6.140;2023-07-22T08:19:30;3.78;;;2.33;;
78416;SDS011;67715;46.170;6.140;2023-07-22T08:21:55;4.43;;;2.00;;
78416;SDS011;67715;46.170;6.140;2023-07-22T08:24:20;3.30;;;1.50;;
78416;SDS011;67715;46.170;6.140;2023-07-22T08:26:46;2.80;;;1.87;;
78416;SDS011;67715;46.170;6.140;2023-07-22T08:29:11;3.67;;;2.00;;
78416;SDS011;67715;46.170;6.140;2023-07-22T08:31:36;3.88;;;1.95;;
78416;SDS011;67715;46.170;6.140;2023-07-22T08:34:02;3.57;;;1.87;;
78416;SDS011;67715;46.170;6.140;2023-07-22T08:36:27;2.88;;;2.00;;
78416;SDS011;67715;46.170;6.140;2023-07-22T08:38:52;6.07;;;2.17;;
78416;SDS011;67715;46.170;6.140;2023-07-22T08:41:18;4.00;;;1.97;;
78416;SDS011;67715;46.170;6.140;2023-07-22T08:43:45;2.50;;;1.45;;
78416;SDS011;67715;46.170;6.140;2023-07-22T08:46:12;4.65;;;1.80;;
78416;SDS011;67715;46.170;6.140;2023-07-22T08:48:37;4.82;;;1.60;;
78416;SDS011;67715;46.170;6.140;2023-07-22T08:51:08;7.97;;;1.90;;
78416;SDS011;67715;46.170;6.140;2023-07-22T08:53:35;3.53;;;2.00;;
78416;SDS011;67715;46.170;6.140;2023-07-22T08:56:02;3.30;;;1.60;;
78416;SDS011;67715;46.170;6.140;2023-07-22T08:58:28;2.35;;;1.50;;
78416;SDS011;67715;46.170;6.140;2023-07-22T09:00:54;3.28;;;1.77;;
78416;SDS011;67715;46.170;6.140;2023-07-22T09:03:19;2.90;;;1.55;;
78416;SDS011;67715;46.170;6.140;2023-07-22T09:05:44;3.08;;;1.65;;
78416;SDS011;67715;46.170;6.140;2023-07-22T09:08:10;4.32;;;1.60;;
78416;SDS011;67715;46.170;6.140;2023-07-22T09:10:36;5.38;;;2.05;;
78416;SDS011;67715;46.170;6.140;2023-07-22T09:13:02;2.72;;;1.55;;
78416;SDS011;67715;46.170;6.140;2023-07-22T09:15:28;3.05;;;1.75;;
78416;SDS011;67715;46.170;6.140;2023-07-22T09:17:53;4.85;;;1.95;;
78416;SDS011;67715;46.170;6.140;2023-07-22T09:20:20;5.05;;;1.58;;
78416;SDS011;67715;46.170;6.140;2023-07-22T09:22:46;3.83;;;1.85;;
78416;SDS011;67715;46.170;6.140;2023-07-22T09:27:39;4.75;;;1.70;;
78416;SDS011;67715;46.170;6.140;2023-07-22T09:30:17;2.03;;;1.67;;
78416;SDS011;67715;46.170;6.140;2023-07-22T09:32:45;2.33;;;1.40;;
78416;SDS011;67715;46.170;6.140;2023-07-22T09:35:10;5.70;;;1.67;;
78416;SDS011;67715;46.170;6.140;2023-07-22T09:37:36;2.43;;;1.23;;
78416;SDS011;67715;46.170;6.140;2023-07-22T09:40:04;3.28;;;1.40;;
78416;SDS011;67715;46.170;6.140;2023-07-22T09:42:39;7.10;;;2.00;;
78416;SDS011;67715;46.170;6.140;2023-07-22T09:45:04;3.90;;;1.50;;
78416;SDS011;67715;46.170;6.140;2023-07-22T09:47:39;3.67;;;1.23;;
78416;SDS011;67715;46.170;6.140;2023-07-22T09:50:05;3.72;;;1.60;;
78416;SDS011;67715;46.170;6.140;2023-07-22T09:52:31;4.10;;;1.80;;
78416;SDS011;67715;46.170;6.140;2023-07-22T09:54:58;2.47;;;1.52;;
78416;SDS011;67715;46.170;6.140;2023-07-22T09:57:24;2.15;;;1.60;;
78416;SDS011;67715;46.170;6.140;2023-07-22T09:59:49;3.45;;;1.67;;
78416;SDS011;67715;46.170;6.140;2023-07-22T10:02:17;3.60;;;1.83;;
78416;SDS011;67715;46.170;6.140;2023-07-22T10:04:43;2.75;;;1.40;;
78416;SDS011;67715;46.170;6.140;2023-07-22T10:07:09;4.80;;;2.33;;
78416;SDS011;67715;46.170;6.140;2023-07-22T10:09:36;3.90;;;1.80;;
78416;SDS011;67715;46.170;6.140;2023-07-22T10:12:01;2.45;;;1.45;;
78416;SDS011;67715;46.170;6.140;2023-07-22T10:14:28;2.08;;;1.23;;
78416;SDS011;67715;46.170;6.140;2023-07-22T10:16:54;3.17;;;1.30;;
78416;SDS011;67715;46.170;6.140;2023-07-22T10:19:19;2.70;;;1.60;;
78416;SDS011;67715;46.170;6.140;2023-07-22T10:21:46;2.60;;;1.20;;
78416;SDS011;67715;46.170;6.140;2023-07-22T10:24:12;5.65;;;1.70;;
78416;SDS011;67715;46.170;6.140;2023-07-22T10:26:37;3.08;;;1.48;;
78416;SDS011;67715;46.170;6.140;2023-07-22T10:29:04;2.40;;;1.52;;
78416;SDS011;67715;46.170;6.140;2023-07-22T10:31:30;2.42;;;1.08;;
78416;SDS011;67715;46.170;6.140;2023-07-22T10:33:56;2.72;;;1.20;;
78416;SDS011;67715;46.170;6.140;2023-07-22T10:36:21;1.53;;;1.10;;
78416;SDS011;67715;46.170;6.140;2023-07-22T10:38:57;3.58;;;1.40;;
78416;SDS011;67715;46.170;6.140;2023-07-22T10:41:24;2.25;;;1.02;;
78416;SDS011;67715;46.170;6.140;2023-07-22T10:43:53;3.35;;;1.48;;
78416;SDS011;67715;46.170;6.140;2023-07-22T10:46:30;2.40;;;1.55;;
78416;SDS011;67715;46.170;6.140;2023-07-22T10:49:09;1.40;;;1.05;;
78416;SDS011;67715;46.170;6.140;2023-07-22T10:51:36;1.60;;;1.10;;
78416;SDS011;67715;46.170;6.140;2023-07-22T10:54:02;1.80;;;1.20;;
78416;SDS011;67715;46.170;6.140;2023-07-22T10:56:28;2.15;;;1.33;;
78416;SDS011;67715;46.170;6.140;2023-07-22T11:06:27;2.30;;;1.10;;
78416;SDS011;67715;46.170;6.140;2023-07-22T11:08:54;2.22;;;1.30;;
78416;SDS011;67715;46.170;6.140;2023-07-22T11:11:20;1.75;;;1.10;;
78416;SDS011;67715;46.170;6.140;2023-07-22T11:13:45;1.80;;;1.17;;
78416;SDS011;67715;46.170;6.140;2023-07-22T11:16:11;1.75;;;0.90;;
78416;SDS011;67715;46.170;6.140;2023-07-22T11:18:37;2.58;;;1.30;;
78416;SDS011;67715;46.170;6.140;2023-07-22T11:21:06;1.65;;;1.05;;
78416;SDS011;67715;46.170;6.140;2023-07-22T11:23:33;2.75;;;1.10;;
78416;SDS011;67715;46.170;6.140;2023-07-22T11:26:00;2.05;;;1.33;;
78416;SDS011;67715;46.170;6.140;2023-07-22T11:28:25;2.45;;;1.17;;
78416;SDS011;67715;46.170;6.140;2023-07-22T11:30:51;1.47;;;0.97;;
78416;SDS011;67715;46.170;6.140;2023-07-22T11:33:18;3.03;;;1.38;;
78416;SDS011;67715;46.170;6.140;2023-07-22T11:35:43;2.50;;;1.10;;
78416;SDS011;67715;46.170;6.140;2023-07-22T11:38:11;2.43;;;1.10;;
78416;SDS011;67715;46.170;6.140;2023-07-22T11:40:37;1.75;;;1.02;;
78416;SDS011;67715;46.170;6.140;2023-07-22T11:43:02;3.27;;;1.30;;
78416;SDS011;67715;46.170;6.140;2023-07-22T11:45:27;1.60;;;1.00;;
78416;SDS011;67715;46.170;6.140;2023-07-22T11:47:52;3.92;;;1.13;;
78416;SDS011;67715;46.170;6.140;2023-07-22T11:50:18;2.00;;;1.20;;
78416;SDS011;67715;46.170;6.140;2023-07-22T11:52:49;2.47;;;1.17;;
78416;SDS011;67715;46.170;6.140;2023-07-22T11:55:15;2.75;;;1.40;;
78416;SDS011;67715;46.170;6.140;2023-07-22T11:57:40;1.83;;;1.10;;
78416;SDS011;67715;46.170;6.140;2023-07-22T12:00:07;2.05;;;1.25;;
78416;SDS011;67715;46.170;6.140;2023-07-22T12:02:35;2.17;;;1.30;;
78416;SDS011;67715;46.170;6.140;2023-07-22T12:05:01;3.50;;;1.60;;
78416;SDS011;67715;46.170;6.140;2023-07-22T12:07:32;1.65;;;1.02;;
78416;SDS011;67715;46.170;6.140;2023-07-22T12:10:02;1.95;;;1.17;;
78416;SDS011;67715;46.170;6.140;2023-07-22T12:15:08;1.85;;;1.10;;
78416;SDS011;67715;46.170;6.140;2023-07-22T12:17:45;3.55;;;1.15;;
78416;SDS011;67715;46.170;6.140;2023-07-22T12:20:14;1.33;;;0.95;;
78416;SDS011;67715;46.170;6.140;2023-07-22T12:22:40;2.65;;;1.23;;
78416;SDS011;67715;46.170;6.140;2023-07-22T12:25:06;1.30;;;1.00;;
78416;SDS011;67715;46.170;6.140;2023-07-22T12:27:32;2.20;;;1.20;;
78416;SDS011;67715;46.170;6.140;2023-07-22T12:29:57;1.80;;;1.27;;
78416;SDS011;67715;46.170;6.140;2023-07-22T12:32:22;1.93;;;1.07;;
78416;SDS011;67715;46.170;6.140;2023-07-22T12:34:47;1.43;;;0.97;;
78416;SDS011;67715;46.170;6.140;2023-07-22T12:37:13;5.03;;;2.10;;
78416;SDS011;67715;46.170;6.140;2023-07-22T12:39:38;1.77;;;1.20;;
78416;SDS011;67715;46.170;6.140;2023-07-22T12:42:03;1.60;;;0.97;;
78416;SDS011;67715;46.170;6.140;2023-07-22T12:44:29;1.40;;;1.10;;
78416;SDS011;67715;46.170;6.140;2023-07-22T12:46:55;1.90;;;1.33;;
78416;SDS011;67715;46.170;6.140;2023-07-22T12:49:20;2.88;;;1.40;;
78416;SDS011;67715;46.170;6.140;2023-07-22T12:51:45;2.80;;;1.20;;
78416;SDS011;67715;46.170;6.140;2023-07-22T12:54:11;2.95;;;1.58;;
78416;SDS011;67715;46.170;6.140;2023-07-22T12:56:36;4.57;;;1.83;;
78416;SDS011;67715;46.170;6.140;2023-07-22T12:59:02;2.97;;;1.50;;
78416;SDS011;67715;46.170;6.140;2023-07-22T13:01:27;2.37;;;1.20;;
78416;SDS011;67715;46.170;6.140;2023-07-22T13:03:52;1.57;;;1.10;;
78416;SDS011;67715;46.170;6.140;2023-07-22T13:06:18;1.90;;;1.10;;
78416;SDS011;67715;46.170;6.140;2023-07-22T13:08:43;8.35;;;1.67;;
78416;SDS011;67715;46.170;6.140;2023-07-22T13:11:08;2.80;;;1.20;;
78416;SDS011;67715;46.170;6.140;2023-07-22T13:13:33;2.00;;;1.27;;
78416;SDS011;67715;46.170;6.140;2023-07-22T13:15:59;1.60;;;1.13;;
78416;SDS011;67715;46.170;6.140;2023-07-22T13:18:24;2.60;;;1.40;;
78416;SDS011;67715;46.170;6.140;2023-07-22T13:20:49;2.07;;;1.30;;
78416;SDS011;67715;46.170;6.140;2023-07-22T13:23:15;3.08;;;1.60;;
78416;SDS011;67715;46.170;6.140;2023-07-22T13:25:40;2.93;;;1.57;;
78416;SDS011;67715;46.170;6.140;2023-07-22T13:28:05;2.20;;;1.40;;
78416;SDS011;67715;46.170;6.140;2023-07-22T13:30:31;2.95;;;1.30;;
78416;SDS011;67715;46.170;6.140;2023-07-22T13:32:56;1.88;;;1.30;;
78416;SDS011;67715;46.170;6.140;2023-07-22T13:35:22;1.48;;;1.00;;
78416;SDS011;67715;46.170;6.140;2023-07-22T13:37:47;3.10;;;1.45;;
78416;SDS011;67715;46.170;6.140;2023-07-22T13:40:12;3.17;;;1.20;;
78416;SDS011;67715;46.170;6.140;2023-07-22T13:42:38;2.20;;;1.70;;
78416;SDS011;67715;46.170;6.140;2023-07-22T13:45:04;3.28;;;1.45;;
78416;SDS011;67715;46.170;6.140;2023-07-22T13:47:30;2.88;;;1.23;;
78416;SDS011;67715;46.170;6.140;2023-07-22T13:49:55;1.80;;;1.00;;
78416;SDS011;67715;46.170;6.140;2023-07-22T13:52:20;1.83;;;1.23;;
78416;SDS011;67715;46.170;6.140;2023-07-22T13:54:45;2.67;;;1.10;;
78416;SDS011;67715;46.170;6.140;2023-07-22T13:57:11;2.53;;;1.33;;
78416;SDS011;67715;46.170;6.140;2023-07-22T13:59:37;5.93;;;1.60;;
78416;SDS011;67715;46.170;6.140;2023-07-22T14:02:02;3.17;;;1.30;;
78416;SDS011;67715;46.170;6.140;2023-07-22T14:04:28;1.83;;;1.05;;
78416;SDS011;67715;46.170;6.140;2023-07-22T14:06:53;4.53;;;1.50;;
78416;SDS011;67715;46.170;6.140;2023-07-22T14:09:19;2.43;;;1.47;;
78416;SDS011;67715;46.170;6.140;2023-07-22T14:11:44;3.78;;;1.40;;
78416;SDS011;67715;46.170;6.140;2023-07-22T14:14:09;1.70;;;1.07;;
78416;SDS011;67715;46.170;6.140;2023-07-22T14:16:35;2.07;;;1.20;;
78416;SDS011;67715;46.170;6.140;2023-07-22T14:19:00;2.40;;;1.70;;
78416;SDS011;67715;46.170;6.140;2023-07-22T14:21:25;2.90;;;1.33;;
78416;SDS011;67715;46.170;6.140;2023-07-22T14:23:51;2.17;;;1.23;;
78416;SDS011;67715;46.170;6.140;2023-07-22T14:26:16;2.43;;;1.10;;
78416;SDS011;67715;46.170;6.140;2023-07-22T14:28:41;2.27;;;1.40;;
78416;SDS011;67715;46.170;6.140;2023-07-22T14:31:07;2.67;;;1.30;;
78416;SDS011;67715;46.170;6.140;2023-07-22T14:33:32;1.37;;;1.10;;
78416;SDS011;67715;46.170;6.140;2023-07-22T14:35:57;2.17;;;1.27;;
78416;SDS011;67715;46.170;6.140;2023-07-22T14:38:23;2.30;;;1.43;;
78416;SDS011;67715;46.170;6.140;2023-07-22T14:40:48;3.37;;;1.47;;
78416;SDS011;67715;46.170;6.140;2023-07-22T14:43:13;1.83;;;1.30;;
78416;SDS011;67715;46.170;6.140;2023-07-22T14:45:39;2.40;;;1.40;;
78416;SDS011;67715;46.170;6.140;2023-07-22T14:48:04;1.60;;;1.10;;
78416;SDS011;67715;46.170;6.140;2023-07-22T14:50:30;2.63;;;1.90;;
78416;SDS011;67715;46.170;6.140;2023-07-22T14:52:55;3.08;;;2.08;;
78416;SDS011;67715;46.170;6.140;2023-07-22T14:55:20;4.67;;;1.50;;